sensor_id;sensor_type;location;lat;lon;timestamp;P1;durP1;ratioP1;P2;durP2;ratioP2
2944;SDS011;1482;51.398;7.128;2023-07-31T00:00:10;9.73;;;5.00;;
2944;SDS011;1482;51.398;7.128;2023-07-31T00:02:36;12.13;;;5.60;;
2944;SDS011;1482;51.398;7.128;2023-07-31T00:05:02;11.63;;;5.10;;
2944;SDS011;1482;51.398;7.128;2023-07-31T00:07:27;11.40;;;5.33;;
2944;SDS011;1482;51.398;7.128;2023-07-31T00:09:53;8.23;;;5.23;;
2944;SDS011;1482;51.398;7.128;2023-07-31T00:12:19;5.90;;;4.70;;
2944;SDS011;1482;51.398;7.128;2023-07-31T00:14:45;12.77;;;5.70;;
2944;SDS011;1482;51.398;7.128;2023-07-31T00:17:11;10.27;;;5.73;;
2944;SDS011;1482;51.398;7.128;2023-07-31T00:19:36;11.63;;;5.87;;
2944;SDS011;1482;51.398;7.128;2023-07-31T00:22:02;9.13;;;5.30;;
2944;SDS011;1482;51.398;7.128;2023-07-31T00:24:28;14.87;;;5.80;;
2944;SDS011;1482;51.398;7.128;2023-07-31T00:26:53;14.33;;;6.77;;
2944;SDS011;1482;51.398;7.128;2023-07-31T00:29:19;9.70;;;5.07;;
2944;SDS011;1482;51.398;7.128;2023-07-31T00:31:44;12.27;;;5.57;;
2944;SDS011;1482;51.398;7.128;2023-07-31T00:34:10;10.73;;;5.70;;
2944;SDS011;1482;51.398;7.128;2023-07-31T00:36:35;15.93;;;5.77;;
2944;SDS011;1482;51.398;7.128;2023-07-31T00:39:01;11.10;;;5.63;;
2944;SDS011;1482;51.398;7.128;2023-07-31T00:41:26;21.53;;;6.57;;
2944;SDS011;1482;51.398;7.128;2023-07-31T00:43:52;16.33;;;5.30;;
2944;SDS011;1482;51.398;7.128;2023-07-31T00:46:17;10.50;;;5.83;;
2944;SDS011;1482;51.398;7.128;2023-07-31T00:48:43;15.40;;;5.73;;
2944;SDS011;1482;51.398;7.128;2023-07-31T00:51:09;12.43;;;5.23;;
2944;SDS011;1482;51.398;7.128;2023-07-31T00:53:35;18.20;;;6.80;;
2944;SDS011;1482;51.398;7.128;2023-07-31T00:56:01;13.17;;;6.20;;
2944;SDS011;1482;51.398;7.128;2023-07-31T00:58:27;9.00;;;6.50;;
2944;SDS011;1482;51.398;7.128;2023-07-31T01:00:53;11.90;;;5.77;;
2944;SDS011;1482;51.398;7.128;2023-07-31T01:03:18;10.90;;;5.30;;
2944;SDS011;1482;51.398;7.128;2023-07-31T01:08:58;20.07;;;6.13;;
2944;SDS011;1482;51.398;7.128;2023-07-31T01:11:29;10.90;;;5.30;;
2944;SDS011;1482;51.398;7.128;2023-07-31T01:13:57;9.50;;;5.30;;
2944;SDS011;1482;51.398;7.128;2023-07-31T01:16:24;16.33;;;6.33;;
2944;SDS011;1482;51.398;7.128;2023-07-31T01:18:50;15.60;;;5.80;;
2944;SDS011;1482;51.398;7.128;2023-07-31T01:24:08;9.70;;;4.87;;
2944;SDS011;1482;51.398;7.128;2023-07-31T01:27:14;14.47;;;5.00;;
2944;SDS011;1482;51.398;7.128;2023-07-31T01:30:03;10.83;;;5.40;;
2944;SDS011;1482;51.398;7.128;2023-07-31T01:32:36;14.00;;;5.80;;
2944;SDS011;1482;51.398;7.128;2023-07-31T01:35:04;13.20;;;5.40;;
2944;SDS011;1482;51.398;7.128;2023-07-31T01:37:31;15.20;;;6.60;;
2944;SDS011;1482;51.398;7.128;2023-07-31T01:39:57;11.47;;;5.60;;
2944;SDS011;1482;51.398;7.128;2023-07-31T01:42:22;12.10;;;5.30;;
2944;SDS011;1482;51.398;7.128;2023-07-31T01:44:48;9.53;;;5.17;;
2944;SDS011;1482;51.398;7.128;2023-07-31T01:47:13;13.00;;;4.77;;
2944;SDS011;1482;51.398;7.128;2023-07-31T01:49:39;13.77;;;5.50;;
2944;SDS011;1482;51.398;7.128;2023-07-31T01:52:04;14.97;;;4.03;;
2944;SDS011;1482;51.398;7.128;2023-07-31T01:54:30;14.63;;;4.70;;
2944;SDS011;1482;51.398;7.128;2023-07-31T01:56:56;15.13;;;4.63;;
2944;SDS011;1482;51.398;7.128;2023-07-31T01:59:21;13.17;;;5.30;;
2944;SDS011;1482;51.398;7.128;2023-07-31T02:01:47;17.67;;;5.70;;
2944;SDS011;1482;51.398;7.128;2023-07-31T02:04:13;10.10;;;4.80;;
2944;SDS011;1482;51.398;7.128;2023-07-31T02:06:38;10.93;;;5.00;;
2944;SDS011;1482;51.398;7.128;2023-07-31T02:09:04;10.70;;;5.23;;
2944;SDS011;1482;51.398;7.128;2023-07-31T02:11:29;8.23;;;4.30;;
2944;SDS011;1482;51.398;7.128;2023-07-31T02:13:55;15.77;;;5.20;;
2944;SDS011;1482;51.398;7.128;2023-07-31T02:16:20;12.37;;;4.50;;
2944;SDS011;1482;51.398;7.128;2023-07-31T02:18:46;17.63;;;5.40;;
2944;SDS011;1482;51.398;7.128;2023-07-31T02:21:11;10.73;;;5.07;;
2944;SDS011;1482;51.398;7.128;2023-07-31T02:23:37;9.83;;;4.97;;
2944;SDS011;1482;51.398;7.128;2023-07-31T02:26:02;12.87;;;5.27;;
2944;SDS011;1482;51.398;7.128;2023-07-31T02:28:28;10.93;;;4.30;;
2944;SDS011;1482;51.398;7.128;2023-07-31T02:30:54;10.50;;;4.93;;
2944;SDS011;1482;51.398;7.128;2023-07-31T02:33:20;7.93;;;5.93;;
2944;SDS011;1482;51.398;7.128;2023-07-31T02:35:45;16.03;;;4.80;;
2944;SDS011;1482;51.398;7.128;2023-07-31T02:38:11;10.83;;;5.90;;
2944;SDS011;1482;51.398;7.128;2023-07-31T02:40:36;15.37;;;4.63;;
2944;SDS011;1482;51.398;7.128;2023-07-31T02:43:02;9.63;;;5.43;;
2944;SDS011;1482;51.398;7.128;2023-07-31T02:45:28;14.83;;;6.60;;
2944;SDS011;1482;51.398;7.128;2023-07-31T02:47:53;10.27;;;5.60;;
2944;SDS011;1482;51.398;7.128;2023-07-31T02:50:19;12.93;;;6.40;;
2944;SDS011;1482;51.398;7.128;2023-07-31T02:52:44;13.63;;;5.77;;
2944;SDS011;1482;51.398;7.128;2023-07-31T02:55:10;11.73;;;4.83;;
2944;SDS011;1482;51.398;7.128;2023-07-31T02:57:36;15.80;;;5.77;;
2944;SDS011;1482;51.398;7.128;2023-07-31T03:00:01;8.80;;;4.77;;
2944;SDS011;1482;51.398;7.128;2023-07-31T03:02:30;12.70;;;5.00;;
2944;SDS011;1482;51.398;7.128;2023-07-31T03:04:56;12.50;;;5.83;;
2944;SDS011;1482;51.398;7.128;2023-07-31T03:07:21;8.93;;;5.33;;
2944;SDS011;1482;51.398;7.128;2023-07-31T03:09:47;10.70;;;6.37;;
2944;SDS011;1482;51.398;7.128;2023-07-31T03:12:12;14.43;;;5.10;;
2944;SDS011;1482;51.398;7.128;2023-07-31T03:14:38;18.90;;;6.03;;
2944;SDS011;1482;51.398;7.128;2023-07-31T03:17:03;11.00;;;4.40;;
2944;SDS011;1482;51.398;7.128;2023-07-31T03:19:32;12.90;;;5.33;;
2944;SDS011;1482;51.398;7.128;2023-07-31T03:21:58;10.80;;;4.97;;
2944;SDS011;1482;51.398;7.128;2023-07-31T03:24:24;9.97;;;5.20;;
2944;SDS011;1482;51.398;7.128;2023-07-31T03:26:50;11.23;;;5.63;;
2944;SDS011;1482;51.398;7.128;2023-07-31T03:29:15;14.50;;;5.10;;
2944;SDS011;1482;51.398;7.128;2023-07-31T03:31:41;13.60;;;5.30;;
2944;SDS011;1482;51.398;7.128;2023-07-31T03:34:06;9.10;;;5.23;;
2944;SDS011;1482;51.398;7.128;2023-07-31T03:36:32;10.00;;;5.67;;
2944;SDS011;1482;51.398;7.128;2023-07-31T03:38:58;10.97;;;4.50;;
2944;SDS011;1482;51.398;7.128;2023-07-31T03:41:23;9.87;;;5.73;;
2944;SDS011;1482;51.398;7.128;2023-07-31T03:43:49;14.03;;;6.23;;
2944;SDS011;1482;51.398;7.128;2023-07-31T03:46:20;10.67;;;5.40;;
2944;SDS011;1482;51.398;7.128;2023-07-31T03:48:47;11.53;;;5.33;;
2944;SDS011;1482;51.398;7.128;2023-07-31T03:51:12;8.63;;;4.70;;
2944;SDS011;1482;51.398;7.128;2023-07-31T03:53:38;13.73;;;5.40;;
2944;SDS011;1482;51.398;7.128;2023-07-31T03:56:04;14.70;;;6.30;;
2944;SDS011;1482;51.398;7.128;2023-07-31T03:58:29;12.73;;;5.13;;
2944;SDS011;1482;51.398;7.128;2023-07-31T04:00:55;14.10;;;5.30;;
2944;SDS011;1482;51.398;7.128;2023-07-31T04:03:20;14.97;;;4.83;;
2944;SDS011;1482;51.398;7.128;2023-07-31T04:05:46;8.80;;;5.17;;
2944;SDS011;1482;51.398;7.128;2023-07-31T04:08:11;16.07;;;5.40;;
2944;SDS011;1482;51.398;7.128;2023-07-31T04:10:37;10.60;;;4.50;;
2944;SDS011;1482;51.398;7.128;2023-07-31T04:13:02;12.43;;;6.40;;
2944;SDS011;1482;51.398;7.128;2023-07-31T04:15:28;11.43;;;4.60;;
2944;SDS011;1482;51.398;7.128;2023-07-31T04:17:53;7.60;;;4.57;;
2944;SDS011;1482;51.398;7.128;2023-07-31T04:20:19;13.20;;;4.50;;
2944;SDS011;1482;51.398;7.128;2023-07-31T04:22:44;9.93;;;5.43;;
2944;SDS011;1482;51.398;7.128;2023-07-31T04:25:10;7.43;;;5.00;;
2944;SDS011;1482;51.398;7.128;2023-07-31T04:27:35;9.07;;;4.70;;
2944;SDS011;1482;51.398;7.128;2023-07-31T04:30:01;11.40;;;6.10;;
2944;SDS011;1482;51.398;7.128;2023-07-31T04:32:27;6.30;;;4.70;;
2944;SDS011;1482;51.398;7.128;2023-07-31T04:34:53;7.03;;;4.00;;
2944;SDS011;1482;51.398;7.128;2023-07-31T04:37:19;9.23;;;5.10;;
2944;SDS011;1482;51.398;7.128;2023-07-31T04:39:44;14.90;;;5.97;;
2944;SDS011;1482;51.398;7.128;2023-07-31T04:42:10;10.10;;;5.07;;
2944;SDS011;1482;51.398;7.128;2023-07-31T04:44:35;10.10;;;5.90;;
2944;SDS011;1482;51.398;7.128;2023-07-31T04:47:01;9.23;;;4.80;;
2944;SDS011;1482;51.398;7.128;2023-07-31T04:49:27;10.70;;;6.07;;
2944;SDS011;1482;51.398;7.128;2023-07-31T04:51:53;14.30;;;5.30;;
2944;SDS011;1482;51.398;7.128;2023-07-31T04:54:18;9.30;;;4.93;;
2944;SDS011;1482;51.398;7.128;2023-07-31T04:56:44;10.83;;;5.87;;
2944;SDS011;1482;51.398;7.128;2023-07-31T04:59:09;7.00;;;5.03;;
2944;SDS011;1482;51.398;7.128;2023-07-31T05:01:35;11.00;;;6.27;;
2944;SDS011;1482;51.398;7.128;2023-07-31T05:04:00;19.03;;;7.30;;
2944;SDS011;1482;51.398;7.128;2023-07-31T05:06:26;10.50;;;4.40;;
2944;SDS011;1482;51.398;7.128;2023-07-31T05:08:51;11.93;;;5.50;;
2944;SDS011;1482;51.398;7.128;2023-07-31T05:11:17;11.43;;;6.23;;
2944;SDS011;1482;51.398;7.128;2023-07-31T05:13:42;11.07;;;4.83;;
2944;SDS011;1482;51.398;7.128;2023-07-31T05:16:08;7.43;;;5.70;;
2944;SDS011;1482;51.398;7.128;2023-07-31T05:18:33;9.20;;;5.87;;
2944;SDS011;1482;51.398;7.128;2023-07-31T05:20:59;13.87;;;5.43;;
2944;SDS011;1482;51.398;7.128;2023-07-31T05:23:24;7.03;;;5.30;;
2944;SDS011;1482;51.398;7.128;2023-07-31T05:25:50;12.80;;;5.17;;
2944;SDS011;1482;51.398;7.128;2023-07-31T05:28:15;15.00;;;7.60;;
2944;SDS011;1482;51.398;7.128;2023-07-31T05:30:41;13.40;;;6.27;;
2944;SDS011;1482;51.398;7.128;2023-07-31T05:33:06;9.10;;;5.93;;
2944;SDS011;1482;51.398;7.128;2023-07-31T05:35:32;17.40;;;6.80;;
2944;SDS011;1482;51.398;7.128;2023-07-31T05:37:57;7.53;;;5.40;;
2944;SDS011;1482;51.398;7.128;2023-07-31T05:40:23;9.83;;;6.07;;
2944;SDS011;1482;51.398;7.128;2023-07-31T05:42:48;7.90;;;5.87;;
2944;SDS011;1482;51.398;7.128;2023-07-31T05:45:14;10.77;;;6.07;;
2944;SDS011;1482;51.398;7.128;2023-07-31T05:47:40;14.50;;;6.87;;
2944;SDS011;1482;51.398;7.128;2023-07-31T05:50:05;7.30;;;5.63;;
2944;SDS011;1482;51.398;7.128;2023-07-31T05:52:31;10.50;;;6.13;;
2944;SDS011;1482;51.398;7.128;2023-07-31T05:54:56;10.80;;;5.73;;
2944;SDS011;1482;51.398;7.128;2023-07-31T05:57:22;8.50;;;6.03;;
2944;SDS011;1482;51.398;7.128;2023-07-31T05:59:48;7.43;;;5.33;;
2944;SDS011;1482;51.398;7.128;2023-07-31T06:02:13;9.77;;;6.20;;
2944;SDS011;1482;51.398;7.128;2023-07-31T06:04:39;8.03;;;5.73;;
2944;SDS011;1482;51.398;7.128;2023-07-31T06:07:05;13.37;;;6.07;;
2944;SDS011;1482;51.398;7.128;2023-07-31T06:09:30;16.00;;;6.30;;
2944;SDS011;1482;51.398;7.128;2023-07-31T06:11:56;7.50;;;5.13;;
2944;SDS011;1482;51.398;7.128;2023-07-31T06:14:22;11.63;;;5.80;;
2944;SDS011;1482;51.398;7.128;2023-07-31T06:16:47;10.70;;;5.73;;
2944;SDS011;1482;51.398;7.128;2023-07-31T06:19:13;10.40;;;5.50;;
2944;SDS011;1482;51.398;7.128;2023-07-31T06:21:38;10.17;;;5.83;;
2944;SDS011;1482;51.398;7.128;2023-07-31T06:24:05;10.07;;;6.03;;
2944;SDS011;1482;51.398;7.128;2023-07-31T06:26:30;8.20;;;5.90;;
2944;SDS011;1482;51.398;7.128;2023-07-31T06:28:56;10.20;;;5.73;;
2944;SDS011;1482;51.398;7.128;2023-07-31T06:31:21;6.67;;;5.53;;
2944;SDS011;1482;51.398;7.128;2023-07-31T06:33:51;7.63;;;4.80;;
2944;SDS011;1482;51.398;7.128;2023-07-31T06:36:17;6.50;;;5.80;;
2944;SDS011;1482;51.398;7.128;2023-07-31T06:38:43;12.63;;;6.00;;
2944;SDS011;1482;51.398;7.128;2023-07-31T06:41:08;11.47;;;4.90;;
2944;SDS011;1482;51.398;7.128;2023-07-31T06:43:35;7.93;;;5.57;;
2944;SDS011;1482;51.398;7.128;2023-07-31T06:46:07;11.30;;;6.17;;
2944;SDS011;1482;51.398;7.128;2023-07-31T06:48:33;11.00;;;5.63;;
2944;SDS011;1482;51.398;7.128;2023-07-31T06:51:00;7.57;;;4.33;;
2944;SDS011;1482;51.398;7.128;2023-07-31T06:53:26;5.60;;;5.10;;
2944;SDS011;1482;51.398;7.128;2023-07-31T06:55:51;11.97;;;4.40;;
2944;SDS011;1482;51.398;7.128;2023-07-31T06:58:17;15.30;;;5.37;;
2944;SDS011;1482;51.398;7.128;2023-07-31T07:00:42;7.13;;;5.43;;
2944;SDS011;1482;51.398;7.128;2023-07-31T07:03:08;8.40;;;5.67;;
2944;SDS011;1482;51.398;7.128;2023-07-31T07:05:33;7.70;;;6.20;;
2944;SDS011;1482;51.398;7.128;2023-07-31T07:07:59;8.90;;;5.13;;
2944;SDS011;1482;51.398;7.128;2023-07-31T07:10:25;6.70;;;4.17;;
2944;SDS011;1482;51.398;7.128;2023-07-31T07:12:51;9.80;;;5.20;;
2944;SDS011;1482;51.398;7.128;2023-07-31T07:15:16;6.10;;;5.53;;
2944;SDS011;1482;51.398;7.128;2023-07-31T07:17:42;8.73;;;5.80;;
2944;SDS011;1482;51.398;7.128;2023-07-31T07:20:08;9.50;;;4.50;;
2944;SDS011;1482;51.398;7.128;2023-07-31T07:22:33;10.27;;;6.10;;
2944;SDS011;1482;51.398;7.128;2023-07-31T07:24:59;12.03;;;6.10;;
2944;SDS011;1482;51.398;7.128;2023-07-31T07:27:24;10.67;;;4.73;;
2944;SDS011;1482;51.398;7.128;2023-07-31T07:29:50;9.20;;;5.43;;
2944;SDS011;1482;51.398;7.128;2023-07-31T07:32:19;7.90;;;5.20;;
2944;SDS011;1482;51.398;7.128;2023-07-31T07:34:45;6.60;;;4.43;;
2944;SDS011;1482;51.398;7.128;2023-07-31T07:37:12;7.87;;;4.97;;
2944;SDS011;1482;51.398;7.128;2023-07-31T07:39:37;9.53;;;4.83;;
2944;SDS011;1482;51.398;7.128;2023-07-31T07:42:03;7.43;;;5.43;;
2944;SDS011;1482;51.398;7.128;2023-07-31T07:44:28;7.07;;;4.47;;
2944;SDS011;1482;51.398;7.128;2023-07-31T07:46:54;10.33;;;4.97;;
2944;SDS011;1482;51.398;7.128;2023-07-31T07:49:20;7.80;;;5.00;;
2944;SDS011;1482;51.398;7.128;2023-07-31T07:51:47;10.70;;;5.87;;
2944;SDS011;1482;51.398;7.128;2023-07-31T07:54:13;7.03;;;5.43;;
2944;SDS011;1482;51.398;7.128;2023-07-31T07:56:39;6.50;;;4.73;;
2944;SDS011;1482;51.398;7.128;2023-07-31T07:59:04;7.27;;;4.53;;
2944;SDS011;1482;51.398;7.128;2023-07-31T08:01:30;8.30;;;5.80;;
2944;SDS011;1482;51.398;7.128;2023-07-31T08:03:56;10.87;;;5.47;;
2944;SDS011;1482;51.398;7.128;2023-07-31T08:06:21;5.20;;;4.37;;
2944;SDS011;1482;51.398;7.128;2023-07-31T08:08:47;8.90;;;5.00;;
2944;SDS011;1482;51.398;7.128;2023-07-31T08:11:13;7.77;;;4.23;;
2944;SDS011;1482;51.398;7.128;2023-07-31T08:13:38;7.23;;;4.57;;
2944;SDS011;1482;51.398;7.128;2023-07-31T08:16:04;6.43;;;4.70;;
2944;SDS011;1482;51.398;7.128;2023-07-31T08:18:30;8.00;;;4.50;;
2944;SDS011;1482;51.398;7.128;2023-07-31T08:20:57;5.63;;;4.20;;
2944;SDS011;1482;51.398;7.128;2023-07-31T08:23:22;5.53;;;4.00;;
2944;SDS011;1482;51.398;7.128;2023-07-31T08:25:48;3.40;;;3.10;;
2944;SDS011;1482;51.398;7.128;2023-07-31T08:28:15;4.07;;;3.50;;
2944;SDS011;1482;51.398;7.128;2023-07-31T08:30:41;4.80;;;3.60;;
2944;SDS011;1482;51.398;7.128;2023-07-31T08:33:07;6.73;;;3.60;;
2944;SDS011;1482;51.398;7.128;2023-07-31T08:35:33;3.73;;;2.97;;
2944;SDS011;1482;51.398;7.128;2023-07-31T08:37:58;4.60;;;3.80;;
2944;SDS011;1482;51.398;7.128;2023-07-31T08:40:24;3.77;;;2.80;;
2944;SDS011;1482;51.398;7.128;2023-07-31T08:42:53;4.07;;;3.60;;
2944;SDS011;1482;51.398;7.128;2023-07-31T08:45:21;6.37;;;3.53;;
2944;SDS011;1482;51.398;7.128;2023-07-31T08:47:48;5.10;;;3.57;;
2944;SDS011;1482;51.398;7.128;2023-07-31T08:50:16;4.80;;;3.63;;
2944;SDS011;1482;51.398;7.128;2023-07-31T08:52:43;7.50;;;3.83;;
2944;SDS011;1482;51.398;7.128;2023-07-31T08:55:09;5.43;;;3.93;;
2944;SDS011;1482;51.398;7.128;2023-07-31T08:57:36;7.70;;;3.57;;
2944;SDS011;1482;51.398;7.128;2023-07-31T09:00:03;6.50;;;4.10;;
2944;SDS011;1482;51.398;7.128;2023-07-31T09:02:37;5.73;;;4.47;;
2944;SDS011;1482;51.398;7.128;2023-07-31T09:05:11;3.77;;;3.20;;
2944;SDS011;1482;51.398;7.128;2023-07-31T09:07:37;3.57;;;3.27;;
2944;SDS011;1482;51.398;7.128;2023-07-31T09:10:04;3.77;;;3.40;;
2944;SDS011;1482;51.398;7.128;2023-07-31T09:12:30;3.97;;;3.47;;
2944;SDS011;1482;51.398;7.128;2023-07-31T09:14:56;7.47;;;3.57;;
2944;SDS011;1482;51.398;7.128;2023-07-31T09:17:29;5.53;;;4.00;;
2944;SDS011;1482;51.398;7.128;2023-07-31T09:22:44;3.00;;;2.70;;
2944;SDS011;1482;51.398;7.128;2023-07-31T09:25:14;4.87;;;3.90;;
2944;SDS011;1482;51.398;7.128;2023-07-31T09:27:50;5.80;;;2.97;;
2944;SDS011;1482;51.398;7.128;2023-07-31T09:30:16;5.67;;;3.27;;
2944;SDS011;1482;51.398;7.128;2023-07-31T09:32:43;7.20;;;3.40;;
2944;SDS011;1482;51.398;7.128;2023-07-31T09:35:13;2.50;;;2.30;;
2944;SDS011;1482;51.398;7.128;2023-07-31T09:37:38;3.33;;;3.03;;
2944;SDS011;1482;51.398;7.128;2023-07-31T09:40:04;3.30;;;2.47;;
2944;SDS011;1482;51.398;7.128;2023-07-31T09:42:30;3.17;;;2.97;;
2944;SDS011;1482;51.398;7.128;2023-07-31T09:45:06;3.57;;;2.50;;
2944;SDS011;1482;51.398;7.128;2023-07-31T09:47:33;3.30;;;2.73;;
2944;SDS011;1482;51.398;7.128;2023-07-31T09:49:59;3.60;;;3.00;;
2944;SDS011;1482;51.398;7.128;2023-07-31T09:52:25;7.70;;;3.07;;
2944;SDS011;1482;51.398;7.128;2023-07-31T09:54:52;2.73;;;2.50;;
2944;SDS011;1482;51.398;7.128;2023-07-31T09:57:17;2.27;;;2.07;;
2944;SDS011;1482;51.398;7.128;2023-07-31T09:59:47;3.13;;;2.60;;
2944;SDS011;1482;51.398;7.128;2023-07-31T10:02:14;5.33;;;3.20;;
2944;SDS011;1482;51.398;7.128;2023-07-31T10:04:43;2.80;;;2.60;;
2944;SDS011;1482;51.398;7.128;2023-07-31T10:07:10;5.43;;;2.80;;
2944;SDS011;1482;51.398;7.128;2023-07-31T10:09:36;2.80;;;2.60;;
2944;SDS011;1482;51.398;7.128;2023-07-31T10:12:02;3.57;;;3.07;;
2944;SDS011;1482;51.398;7.128;2023-07-31T10:14:34;2.40;;;2.20;;
2944;SDS011;1482;51.398;7.128;2023-07-31T10:16:59;2.10;;;1.80;;
2944;SDS011;1482;51.398;7.128;2023-07-31T10:19:26;2.57;;;2.37;;
2944;SDS011;1482;51.398;7.128;2023-07-31T10:21:54;2.70;;;2.50;;
2944;SDS011;1482;51.398;7.128;2023-07-31T10:24:22;3.27;;;2.57;;
2944;SDS011;1482;51.398;7.128;2023-07-31T10:26:49;2.27;;;2.07;;
2944;SDS011;1482;51.398;7.128;2023-07-31T10:29:17;2.17;;;1.90;;
2944;SDS011;1482;51.398;7.128;2023-07-31T10:31:44;2.03;;;1.93;;
2944;SDS011;1482;51.398;7.128;2023-07-31T10:34:11;2.80;;;1.97;;
2944;SDS011;1482;51.398;7.128;2023-07-31T10:36:38;2.50;;;2.30;;
2944;SDS011;1482;51.398;7.128;2023-07-31T10:39:03;3.00;;;2.63;;
2944;SDS011;1482;51.398;7.128;2023-07-31T10:41:29;4.37;;;2.60;;
2944;SDS011;1482;51.398;7.128;2023-07-31T10:43:59;2.80;;;2.60;;
2944;SDS011;1482;51.398;7.128;2023-07-31T10:46:27;3.33;;;2.87;;
2944;SDS011;1482;51.398;7.128;2023-07-31T10:48:57;3.90;;;2.97;;
2944;SDS011;1482;51.398;7.128;2023-07-31T10:51:24;3.30;;;3.00;;
2944;SDS011;1482;51.398;7.128;2023-07-31T10:54:10;3.67;;;3.20;;
2944;SDS011;1482;51.398;7.128;2023-07-31T10:56:39;4.80;;;4.30;;
2944;SDS011;1482;51.398;7.128;2023-07-31T10:59:07;4.63;;;3.77;;
2944;SDS011;1482;51.398;7.128;2023-07-31T11:04:22;6.30;;;3.70;;
2944;SDS011;1482;51.398;7.128;2023-07-31T11:06:56;8.93;;;4.30;;
2944;SDS011;1482;51.398;7.128;2023-07-31T11:09:24;4.40;;;3.30;;
2944;SDS011;1482;51.398;7.128;2023-07-31T11:11:53;5.23;;;3.30;;
2944;SDS011;1482;51.398;7.128;2023-07-31T11:14:19;5.10;;;4.20;;
2944;SDS011;1482;51.398;7.128;2023-07-31T11:16:45;5.50;;;4.30;;
2944;SDS011;1482;51.398;7.128;2023-07-31T11:19:18;4.63;;;3.70;;
2944;SDS011;1482;51.398;7.128;2023-07-31T11:21:47;4.93;;;4.17;;
2944;SDS011;1482;51.398;7.128;2023-07-31T11:24:13;4.63;;;3.47;;
2944;SDS011;1482;51.398;7.128;2023-07-31T11:26:39;4.93;;;3.67;;
2944;SDS011;1482;51.398;7.128;2023-07-31T11:29:12;5.87;;;4.20;;
2944;SDS011;1482;51.398;7.128;2023-07-31T11:31:44;5.30;;;3.40;;
2944;SDS011;1482;51.398;7.128;2023-07-31T11:34:10;4.47;;;4.00;;
2944;SDS011;1482;51.398;7.128;2023-07-31T11:36:35;6.87;;;3.73;;
2944;SDS011;1482;51.398;7.128;2023-07-31T11:39:07;5.93;;;3.60;;
2944;SDS011;1482;51.398;7.128;2023-07-31T11:41:34;4.40;;;3.23;;
2944;SDS011;1482;51.398;7.128;2023-07-31T11:44:00;4.40;;;3.50;;
2944;SDS011;1482;51.398;7.128;2023-07-31T11:46:26;6.50;;;3.57;;
2944;SDS011;1482;51.398;7.128;2023-07-31T11:48:58;4.63;;;3.40;;
2944;SDS011;1482;51.398;7.128;2023-07-31T11:51:25;4.77;;;3.00;;
2944;SDS011;1482;51.398;7.128;2023-07-31T11:53:53;4.40;;;3.30;;
2944;SDS011;1482;51.398;7.128;2023-07-31T11:56:23;3.07;;;2.73;;
2944;SDS011;1482;51.398;7.128;2023-07-31T11:58:50;7.20;;;2.80;;
2944;SDS011;1482;51.398;7.128;2023-07-31T12:01:27;4.23;;;3.03;;
2944;SDS011;1482;51.398;7.128;2023-07-31T12:03:53;3.00;;;2.80;;
2944;SDS011;1482;51.398;7.128;2023-07-31T12:06:20;3.30;;;2.20;;
2944;SDS011;1482;51.398;7.128;2023-07-31T12:08:46;2.93;;;2.70;;
2944;SDS011;1482;51.398;7.128;2023-07-31T12:11:11;4.43;;;3.53;;
2944;SDS011;1482;51.398;7.128;2023-07-31T12:13:42;2.80;;;2.60;;
2944;SDS011;1482;51.398;7.128;2023-07-31T12:16:08;3.80;;;2.60;;
2944;SDS011;1482;51.398;7.128;2023-07-31T12:18:34;6.53;;;3.80;;
2944;SDS011;1482;51.398;7.128;2023-07-31T12:21:01;2.63;;;2.07;;
2944;SDS011;1482;51.398;7.128;2023-07-31T12:23:30;3.30;;;2.83;;
2944;SDS011;1482;51.398;7.128;2023-07-31T12:26:10;2.97;;;2.33;;
2944;SDS011;1482;51.398;7.128;2023-07-31T12:28:40;2.70;;;2.50;;
2944;SDS011;1482;51.398;7.128;2023-07-31T12:31:11;4.90;;;3.23;;
2944;SDS011;1482;51.398;7.128;2023-07-31T12:33:39;2.40;;;2.20;;
2944;SDS011;1482;51.398;7.128;2023-07-31T12:36:12;2.47;;;2.27;;
2944;SDS011;1482;51.398;7.128;2023-07-31T12:38:39;4.07;;;2.87;;
2944;SDS011;1482;51.398;7.128;2023-07-31T12:41:06;2.50;;;2.30;;
2944;SDS011;1482;51.398;7.128;2023-07-31T12:43:32;3.10;;;2.80;;
2944;SDS011;1482;51.398;7.128;2023-07-31T12:45:58;2.60;;;2.30;;
2944;SDS011;1482;51.398;7.128;2023-07-31T12:48:24;4.70;;;2.60;;
2944;SDS011;1482;51.398;7.128;2023-07-31T12:50:50;2.80;;;2.20;;
2944;SDS011;1482;51.398;7.128;2023-07-31T12:53:15;2.37;;;2.10;;
2944;SDS011;1482;51.398;7.128;2023-07-31T12:55:41;3.40;;;2.83;;
2944;SDS011;1482;51.398;7.128;2023-07-31T12:58:07;2.57;;;2.37;;
2944;SDS011;1482;51.398;7.128;2023-07-31T13:00:32;2.30;;;2.10;;
2944;SDS011;1482;51.398;7.128;2023-07-31T13:02:58;2.33;;;2.07;;
2944;SDS011;1482;51.398;7.128;2023-07-31T13:05:25;1.87;;;1.77;;
2944;SDS011;1482;51.398;7.128;2023-07-31T13:07:51;2.83;;;2.10;;
2944;SDS011;1482;51.398;7.128;2023-07-31T13:10:16;3.43;;;2.13;;
2944;SDS011;1482;51.398;7.128;2023-07-31T13:12:42;2.60;;;2.00;;
2944;SDS011;1482;51.398;7.128;2023-07-31T13:15:08;2.70;;;2.30;;
2944;SDS011;1482;51.398;7.128;2023-07-31T13:17:34;2.60;;;2.40;;
2944;SDS011;1482;51.398;7.128;2023-07-31T13:20:00;2.57;;;2.27;;
2944;SDS011;1482;51.398;7.128;2023-07-31T13:22:26;2.33;;;2.13;;
2944;SDS011;1482;51.398;7.128;2023-07-31T13:24:52;4.10;;;2.30;;
2944;SDS011;1482;51.398;7.128;2023-07-31T13:27:18;4.27;;;2.20;;
2944;SDS011;1482;51.398;7.128;2023-07-31T13:29:46;3.13;;;2.30;;
2944;SDS011;1482;51.398;7.128;2023-07-31T13:32:11;3.27;;;3.00;;
2944;SDS011;1482;51.398;7.128;2023-07-31T13:34:37;3.30;;;3.00;;
2944;SDS011;1482;51.398;7.128;2023-07-31T13:37:03;3.07;;;2.80;;
2944;SDS011;1482;51.398;7.128;2023-07-31T13:39:30;3.70;;;3.10;;
2944;SDS011;1482;51.398;7.128;2023-07-31T13:41:56;3.20;;;2.90;;
2944;SDS011;1482;51.398;7.128;2023-07-31T13:44:22;6.03;;;2.40;;
2944;SDS011;1482;51.398;7.128;2023-07-31T13:46:47;3.00;;;2.70;;
2944;SDS011;1482;51.398;7.128;2023-07-31T13:49:13;4.80;;;3.50;;
2944;SDS011;1482;51.398;7.128;2023-07-31T13:51:39;4.50;;;2.93;;
2944;SDS011;1482;51.398;7.128;2023-07-31T13:54:04;4.03;;;3.17;;
2944;SDS011;1482;51.398;7.128;2023-07-31T13:56:31;5.07;;;3.80;;
2944;SDS011;1482;51.398;7.128;2023-07-31T13:58:57;3.87;;;3.50;;
2944;SDS011;1482;51.398;7.128;2023-07-31T14:01:23;3.30;;;3.00;;
2944;SDS011;1482;51.398;7.128;2023-07-31T14:03:49;5.20;;;3.90;;
2944;SDS011;1482;51.398;7.128;2023-07-31T14:06:14;3.67;;;3.30;;
2944;SDS011;1482;51.398;7.128;2023-07-31T14:08:40;3.43;;;3.07;;
2944;SDS011;1482;51.398;7.128;2023-07-31T14:11:05;5.37;;;3.63;;
2944;SDS011;1482;51.398;7.128;2023-07-31T14:13:31;4.23;;;3.60;;
2944;SDS011;1482;51.398;7.128;2023-07-31T14:15:56;4.23;;;3.90;;
2944;SDS011;1482;51.398;7.128;2023-07-31T14:18:22;8.50;;;3.70;;
2944;SDS011;1482;51.398;7.128;2023-07-31T14:20:47;5.03;;;3.67;;
2944;SDS011;1482;51.398;7.128;2023-07-31T14:23:13;4.43;;;4.03;;
2944;SDS011;1482;51.398;7.128;2023-07-31T14:25:39;4.47;;;3.60;;
2944;SDS011;1482;51.398;7.128;2023-07-31T14:28:04;5.67;;;3.80;;
2944;SDS011;1482;51.398;7.128;2023-07-31T14:30:30;6.27;;;3.33;;
2944;SDS011;1482;51.398;7.128;2023-07-31T14:32:55;6.70;;;4.53;;
2944;SDS011;1482;51.398;7.128;2023-07-31T14:35:21;5.63;;;3.70;;
2944;SDS011;1482;51.398;7.128;2023-07-31T14:37:46;5.93;;;3.70;;
2944;SDS011;1482;51.398;7.128;2023-07-31T14:40:12;3.90;;;3.30;;
2944;SDS011;1482;51.398;7.128;2023-07-31T14:42:38;3.60;;;3.30;;
2944;SDS011;1482;51.398;7.128;2023-07-31T14:45:04;5.70;;;3.77;;
2944;SDS011;1482;51.398;7.128;2023-07-31T14:47:31;5.73;;;3.83;;
2944;SDS011;1482;51.398;7.128;2023-07-31T14:49:57;6.60;;;3.40;;
2944;SDS011;1482;51.398;7.128;2023-07-31T14:52:26;24.93;;;3.80;;
2944;SDS011;1482;51.398;7.128;2023-07-31T14:54:51;5.20;;;3.40;;
2944;SDS011;1482;51.398;7.128;2023-07-31T14:57:17;5.20;;;3.47;;
2944;SDS011;1482;51.398;7.128;2023-07-31T14:59:43;4.73;;;4.03;;
2944;SDS011;1482;51.398;7.128;2023-07-31T15:02:10;4.83;;;3.40;;
2944;SDS011;1482;51.398;7.128;2023-07-31T15:04:35;7.23;;;4.00;;
2944;SDS011;1482;51.398;7.128;2023-07-31T15:07:01;5.20;;;3.60;;
2944;SDS011;1482;51.398;7.128;2023-07-31T15:09:27;4.53;;;4.13;;
2944;SDS011;1482;51.398;7.128;2023-07-31T15:11:53;8.73;;;4.07;;
2944;SDS011;1482;51.398;7.128;2023-07-31T15:14:18;9.33;;;3.70;;
2944;SDS011;1482;51.398;7.128;2023-07-31T15:16:45;4.00;;;3.60;;